^^
Grace C. Lehan Memorial Weather Station Historical Data
Daily Summary for August 3, 2021 Units:  Metric    English   Both
Daily Weekly Monthly Yearly
  High: Low: Average:
Temperature: 21.9 °C 11.7 °C 16.2 °C
Dew Point: 13.2 °C 8.9 °C 10.9 °C
Humidity: 94% 44% 73%
Wind Speed: 2.9km/h 0km/h 0.2km/h
Wind Gust: 14.5km/h - -
Wind- - SSE
Pressure: 1011.4 hPa 1008 hPa -
Precipitation: 10.41 mm    
 
 
Tabular Data for August 3, 2021
Time Temperature Dew Point Pressure Wind Wind Speed Wind Gust Humidity Rainfall Rate (Hourly) solar
00:09 15.3 °C 10.7 °C 1009 hPa Calm     74% 0 mm 0 W/m2
00:14 15.3 °C 10.8 °C 1009 hPa Calm     74.6% 0 mm 0 W/m2
00:19 15.2 °C 10.8 °C 1009 hPa Calm     75% 0 mm 0 W/m2
00:24 15.2 °C 10.7 °C 1009 hPa Calm     75% 0 mm 0 W/m2
00:29 15.1 °C 10.7 °C 1009.4 hPa Calm     75% 0 mm 0 W/m2
00:34 15.1 °C 10.7 °C 1009.4 hPa Calm     75% 0 mm 0 W/m2
00:39 15 °C 10.6 °C 1009 hPa Calm     74.7% 0 mm 0 W/m2
00:44 14.9 °C 10.3 °C 1009 hPa Calm     74% 0 mm 0 W/m2
00:49 14.9 °C 10.4 °C 1009 hPa Calm     74.6% 0 mm 0 W/m2
00:54 14.8 °C 10.4 °C 1009 hPa WSW 0.3 km/h 4.8 km/h 75% 0 mm 0 W/m2
00:59 14.7 °C 10.3 °C 1009 hPa WSW 0.5 km/h 4.8 km/h 74.9% 0 mm 0 W/m2
01:04 14.7 °C 10.1 °C 1009 hPa WSW 0.5 km/h 4.8 km/h 74% 0 mm 0 W/m2
01:09 14.6 °C 10 °C 1009 hPa WSW 0.2 km/h 4.8 km/h 74% 0 mm 0 W/m2
01:14 14.6 °C 10.1 °C 1009 hPa Calm   4.8 km/h 74.8% 0 mm 0 W/m2
01:19 14.5 °C 10.1 °C 1009 hPa Calm   4.8 km/h 75% 0 mm 0 W/m2
01:24 14.4 °C 10.1 °C 1009 hPa Calm   4.8 km/h 75% 0 mm 0 W/m2
01:29 14.3 °C 10 °C 1009 hPa Calm   4.8 km/h 75% 0 mm 0 W/m2
01:34 14.3 °C 9.9 °C 1009 hPa Calm   4.8 km/h 75% 0 mm 0 W/m2
01:39 14.2 °C 9.9 °C 1009 hPa Calm     75.2% 0 mm 0 W/m2
01:44 14.2 °C 9.9 °C 1009 hPa Calm     75.8% 0 mm 0 W/m2
01:49 14.1 °C 9.9 °C 1009.4 hPa Calm     76% 0 mm 0 W/m2
01:54 14 °C 9.8 °C 1009 hPa Calm     76% 0 mm 0 W/m2
01:59 13.9 °C 9.8 °C 1009 hPa Calm     76% 0 mm 0 W/m2
02:04 13.9 °C 9.8 °C 1009.4 hPa Calm     76% 0 mm 0 W/m2
02:09 13.9 °C 9.7 °C 1009.4 hPa Calm     76% 0 mm 0 W/m2
02:14 13.8 °C 9.7 °C 1009.4 hPa Calm     76% 0 mm 0 W/m2
02:19 13.8 °C 9.7 °C 1009.4 hPa Calm     76% 0 mm 0 W/m2
02:24 13.8 °C 9.7 °C 1009.4 hPa Calm     76% 0 mm 0 W/m2
02:29 13.9 °C 9.7 °C 1009.4 hPa Calm     76% 0 mm 0 W/m2
02:34 13.9 °C 9.9 °C 1009.4 hPa Calm     76.6% 0 mm 0 W/m2
02:39 13.9 °C 10 °C 1009 hPa Calm     76.9% 0 mm 0 W/m2
02:44 13.9 °C 9.8 °C 1009 hPa Calm     76% 0 mm 0 W/m2
02:49 13.9 °C 9.7 °C 1009 hPa WSW 0.2 km/h 3.2 km/h 75.5% 0 mm 0 W/m2
02:54 14 °C 9.7 °C 1009 hPa Calm   3.2 km/h 75% 0 mm 0 W/m2
02:59 14 °C 9.7 °C 1009 hPa Calm   3.2 km/h 75% 0 mm 0 W/m2
03:04 14 °C 9.7 °C 1009 hPa Calm   3.2 km/h 75% 0 mm 0 W/m2
03:09 14 °C 9.7 °C 1009.4 hPa Calm     75.6% 0 mm 0 W/m2
03:14 13.9 °C 9.8 °C 1009.4 hPa Calm     76.2% 0 mm 0 W/m2
03:19 13.8 °C 9.9 °C 1009 hPa Calm     77.3% 0 mm 0 W/m2
03:24 13.8 °C 10 °C 1009.4 hPa Calm     78% 0 mm 0 W/m2
03:29 13.7 °C 10.2 °C 1009.4 hPa Calm     79.3% 0 mm 0 W/m2
03:34 13.7 °C 10.3 °C 1009.4 hPa Calm     80% 0 mm 0 W/m2
03:39 13.6 °C 10.2 °C 1009.7 hPa Calm     80% 0 mm 0 W/m2
03:44 13.6 °C 10.3 °C 1009.7 hPa Calm     80.9% 0 mm 0 W/m2
03:49 13.5 °C 10.3 °C 1009.4 hPa Calm     81% 0 mm 0 W/m2
03:54 13.4 °C 10.2 °C 1009.4 hPa Calm     81% 0 mm 0 W/m2
03:59 13.3 °C 10.2 °C 1009.4 hPa Calm     81% 0 mm 0 W/m2
04:00 13.3 °C 10.1 °C 1009.4 hPa Calm     81% 0 mm 0 W/m2
04:09 13.2 °C 10 °C 1009.4 hPa Calm     81% 0 mm 0 W/m2
04:14 13.1 °C 9.9 °C 1009.4 hPa Calm     81% 0 mm 0 W/m2
04:19 13 °C 9.9 °C 1009.4 hPa Calm     81.7% 0 mm 0 W/m2
04:24 12.9 °C 9.9 °C 1009.4 hPa Calm     82% 0 mm 0 W/m2
04:29 12.8 °C 9.9 °C 1009.4 hPa Calm     82.5% 0 mm 0 W/m2
04:34 12.8 °C 10 °C 1009.4 hPa Calm     83% 0 mm 0 W/m2
04:39 12.8 °C 9.9 °C 1009.4 hPa Calm     83% 0 mm 0 W/m2
04:44 12.7 °C 9.9 °C 1009.7 hPa Calm     83% 0 mm 0 W/m2
04:49 12.6 °C 9.9 °C 1009.7 hPa Calm     83.7% 0 mm 0 W/m2
04:54 12.5 °C 9.9 °C 1009.7 hPa Calm     84% 0 mm 0 W/m2
04:59 12.4 °C 9.8 °C 1009.7 hPa Calm     84% 0 mm 0 W/m2
05:04 12.4 °C 9.8 °C 1009.7 hPa Calm     84% 0 mm 0 W/m2
05:09 12.3 °C 9.8 °C 1009.7 hPa Calm     84.3% 0 mm 0 W/m2
05:14 12.3 °C 9.8 °C 1009.7 hPa Calm     85% 0 mm 0 W/m2
05:19 12.2 °C 9.8 °C 1009.7 hPa Calm     85.3% 0 mm 0 W/m2
05:24 12.1 °C 9.8 °C 1009.7 hPa Calm     86% 0 mm 0 W/m2
05:29 12 °C 9.8 °C 1009.7 hPa Calm     86% 0 mm 0 W/m2
05:34 11.9 °C 9.7 °C 1009.7 hPa Calm     86% 0 mm 0 W/m2
05:39 11.9 °C 9.8 °C 1010 hPa Calm     86.8% 0 mm 0 W/m2
05:44 11.9 °C 9.8 °C 1010 hPa Calm     87% 0 mm 0 W/m2
05:49 11.9 °C 9.8 °C 1010 hPa Calm     87% 0 mm 5 W/m2
05:54 11.8 °C 9.7 °C 1010 hPa Calm     87% 0 mm 9 W/m2
05:59 11.8 °C 9.8 °C 1010 hPa Calm     87.8% 0 mm 12 W/m2
06:04 11.7 °C 9.8 °C 1010.4 hPa Calm     88% 0 mm 16 W/m2
06:09 11.7 °C 9.8 °C 1010.4 hPa Calm     88% 0 mm 23 W/m2
06:14 11.7 °C 9.8 °C 1010.4 hPa Calm     88% 0 mm 32 W/m2
06:19 11.7 °C 9.8 °C 1010.4 hPa Calm     88% 0 mm 42 W/m2
06:24 11.7 °C 9.8 °C 1010.4 hPa Calm     88.2% 0 mm 56 W/m2
06:29 11.8 °C 9.9 °C 1010.4 hPa Calm     88.8% 0 mm 67 W/m2
06:34 11.8 °C 10.1 °C 1010.7 hPa Calm     89% 0 mm 72 W/m2
06:39 12 °C 10.3 °C 1010.7 hPa Calm     89% 0 mm 83 W/m2
06:44 12.2 °C 10.4 °C 1010.7 hPa Calm     89% 0 mm 95 W/m2
06:49 12.3 °C 10.6 °C 1010.7 hPa Calm     89% 0 mm 105 W/m2
06:54 12.5 °C 10.6 °C 1010.7 hPa Calm     88.2% 0 mm 98 W/m2
06:59 12.7 °C 10.8 °C 1010.7 hPa Calm     88% 0 mm 90 W/m2
07:04 12.8 °C 10.9 °C 1010.7 hPa Calm     87.8% 0 mm 90 W/m2
07:09 13 °C 10.9 °C 1010.7 hPa WSW 0.2 km/h 4.8 km/h 87% 0 mm 97 W/m2
07:14 13.1 °C 10.9 °C 1010.7 hPa Calm   4.8 km/h 86.5% 0 mm 118 W/m2
07:19 13.2 °C 10.9 °C 1011.1 hPa Calm   4.8 km/h 86% 0 mm 132 W/m2
07:24 13.4 °C 10.9 °C 1011.1 hPa Calm   4.8 km/h 85.2% 0 mm 148 W/m2
07:29 13.5 °C 10.8 °C 1011.1 hPa WSW 0.2 km/h 4.8 km/h 84% 0 mm 156 W/m2
07:34 13.7 °C 10.9 °C 1011.1 hPa Calm   4.8 km/h 83.5% 0 mm 171 W/m2
07:39 13.8 °C 10.9 °C 1011.1 hPa West 0.6 km/h 4.8 km/h 82.6% 0 mm 174 W/m2
07:44 14 °C 11 °C 1011.1 hPa Calm   4.8 km/h 82% 0 mm 171 W/m2
07:49 14.2 °C 11 °C 1011.1 hPa Calm   4.8 km/h 81% 0 mm 169 W/m2
07:54 14.3 °C 11.1 °C 1011.1 hPa NW 0.2 km/h 6.4 km/h 80.6% 0 mm 160 W/m2
07:59 14.5 °C 11.1 °C 1011.1 hPa Calm   6.4 km/h 79.9% 0 mm 160 W/m2
08:00 14.6 °C 10.9 °C 1011.1 hPa Calm   6.4 km/h 79% 0 mm 160 W/m2
08:09 14.6 °C 10.8 °C 1011.4 hPa NNW 0.2 km/h 3.2 km/h 78% 0 mm 200 W/m2
08:14 14.7 °C 11 °C 1011.4 hPa North 0.6 km/h 6.4 km/h 78.3% 0 mm 225 W/m2
08:19 14.9 °C 11.2 °C 1011.4 hPa NNW 0.3 km/h 6.4 km/h 78.4% 0 mm 260 W/m2
08:24 15.2 °C 11.2 °C 1011.4 hPa Calm   6.4 km/h 77.3% 0 mm 274 W/m2
08:29 15.4 °C 11.3 °C 1011.4 hPa Calm   6.4 km/h 76.1% 0 mm 267 W/m2
08:34 15.7 °C 11.2 °C 1011.4 hPa NNE 0.3 km/h 6.4 km/h 74.4% 0 mm 265 W/m2
08:39 15.9 °C 11.1 °C 1011.4 hPa Calm   3.2 km/h 73.2% 0 mm 250 W/m2
08:44 16 °C 11.3 °C 1011.4 hPa Calm   3.2 km/h 73.5% 0 mm 276 W/m2
08:49 16.1 °C 11.2 °C 1011.4 hPa NNE 0.8 km/h 6.4 km/h 72.5% 0 mm 313 W/m2
08:54 16.3 °C 11.4 °C 1011.4 hPa NNE 0.3 km/h 6.4 km/h 72.8% 0 mm 279 W/m2
08:59 16.4 °C 11.3 °C 1011.4 hPa NNE 1.4 km/h 6.4 km/h 71.7% 0 mm 260 W/m2
09:04 16.6 °C 11.2 °C 1011.4 hPa NNE 0.8 km/h 6.4 km/h 70.5% 0 mm 285 W/m2
09:09 16.7 °C 11.4 °C 1011.4 hPa Calm   4.8 km/h 70.9% 0 mm 318 W/m2
09:13 16.8 °C 11.7 °C 1011.4 hPa Calm   4.8 km/h 71.6% 0 mm 345 W/m2
09:19 17.1 °C 11.4 °C 1011.4 hPa Calm   4.8 km/h 69.1% 0 mm 432 W/m2
09:24 17.4 °C 11.4 °C 1011.4 hPa NNE 1.1 km/h 6.4 km/h 68% 0 mm 434 W/m2
09:29 17.8 °C 11.1 °C 1011.4 hPa Calm   6.4 km/h 65.1% 0 mm 438 W/m2
09:34 18.1 °C 11.4 °C 1011.4 hPa NNW 1.1 km/h 6.4 km/h 65% 0 mm 461 W/m2
09:39 18.3 °C 11.3 °C 1011.4 hPa NNE 0.3 km/h 6.4 km/h 63.7% 0 mm 438 W/m2
09:44 18.5 °C 11.3 °C 1011.4 hPa Calm   6.4 km/h 62.8% 0 mm 483 W/m2
09:49 18.7 °C 11.2 °C 1011.4 hPa NNE 0.5 km/h 6.4 km/h 61.4% 0 mm 610 W/m2
09:54 18.9 °C 11.3 °C 1011.1 hPa NE 0.3 km/h 6.4 km/h 61.2% 0 mm 624 W/m2
09:59 19.2 °C 10.8 °C 1011.4 hPa ENE 0.8 km/h 8 km/h 58.3% 0 mm 585 W/m2
10:04 19.3 °C 10.3 °C 1011.1 hPa Calm   8 km/h 56.1% 0 mm 573 W/m2
10:09 19.6 °C 11.1 °C 1011.1 hPa NE 0.2 km/h 3.2 km/h 57.9% 0 mm 533 W/m2
10:14 19.9 °C 11.2 °C 1011.1 hPa Calm   3.2 km/h 57.2% 0 mm 548 W/m2
10:19 20.1 °C 10.5 °C 1011.1 hPa Calm   3.2 km/h 54.1% 0 mm 527 W/m2
10:24 20.1 °C 10.1 °C 1011.1 hPa NE 0.5 km/h 4.8 km/h 52.9% 0 mm 554 W/m2
10:29 20.1 °C 10.2 °C 1011.1 hPa NE 0.6 km/h 4.8 km/h 53% 0 mm 559 W/m2
10:34 20.3 °C 10.2 °C 1011.1 hPa Calm   4.8 km/h 52.5% 0 mm 534 W/m2
10:39 20.4 °C 10 °C 1011.1 hPa Calm   1.6 km/h 51.4% 0 mm 557 W/m2
10:44 20.5 °C 10 °C 1011.1 hPa Calm   1.6 km/h 51% 0 mm 582 W/m2
10:49 20.6 °C 10.6 °C 1011.1 hPa NE 0.2 km/h 4.8 km/h 52.6% 0 mm 605 W/m2
10:54 20.9 °C 10.7 °C 1011.1 hPa NE 0.2 km/h 4.8 km/h 51.7% 0 mm 624 W/m2
10:59 21.3 °C 10.7 °C 1011.1 hPa NE 0.2 km/h 4.8 km/h 50.8% 0 mm 603 W/m2
11:04 21.6 °C 10.6 °C 1011.1 hPa ENE 0.3 km/h 4.8 km/h 49.5% 0 mm 596 W/m2
11:09 21.6 °C 10.4 °C 1011.1 hPa Calm   3.2 km/h 49.1% 0 mm 573 W/m2
11:14 21.6 °C 10.4 °C 1011.1 hPa Calm   3.2 km/h 49.1% 0 mm 536 W/m2
11:19 21.5 °C 10.7 °C 1011.1 hPa Calm   3.2 km/h 50% 0 mm 527 W/m2
11:24 21.5 °C 11 °C 1010.7 hPa Calm   3.2 km/h 51.1% 0 mm 615 W/m2
11:29 21.7 °C 11.2 °C 1010.7 hPa NE 0.2 km/h 3.2 km/h 51.2% 0 mm 642 W/m2
11:34 21.9 °C 10.8 °C 1010.7 hPa Calm   3.2 km/h 49.2% 0 mm 557 W/m2
11:39 21.9 °C 10.3 °C 1010.7 hPa ENE 0.5 km/h 8 km/h 47.6% 0 mm 461 W/m2
11:44 21.8 °C 10.2 °C 1010.7 hPa Calm   8 km/h 47.5% 0 mm 385 W/m2
11:49 21.8 °C 10.3 °C 1010.7 hPa Calm   8 km/h 48.1% 0 mm 383 W/m2
11:54 21.7 °C 10.1 °C 1010.7 hPa Calm   8 km/h 47.3% 0 mm 362 W/m2
11:59 21.7 °C 9.4 °C 1010.7 hPa Calm   8 km/h 45.7% 0 mm 332 W/m2
12:00 21.6 °C 9.1 °C 1010.4 hPa Calm   8 km/h 45% 0 mm 292 W/m2
12:09 21.5 °C 9.9 °C 1010.4 hPa Calm     47.7% 0 mm 283 W/m2
12:14 21.5 °C 10.5 °C 1010.4 hPa Calm     49.6% 0 mm 318 W/m2
12:19 21.4 °C 10.1 °C 1010.7 hPa Calm     48.2% 0 mm 318 W/m2
12:24 21.4 °C 10.7 °C 1010.4 hPa Calm   1.6 km/h 50.3% 0 mm 308 W/m2
12:29 21.4 °C 10.4 °C 1010.4 hPa Calm   1.6 km/h 49.4% 0 mm 336 W/m2
12:34 21.4 °C 10.8 °C 1010.4 hPa ENE 0.2 km/h 4.8 km/h 50.7% 0 mm 343 W/m2
12:39 21.5 °C 9.9 °C 1010.4 hPa Calm   4.8 km/h 47.6% 0 mm 387 W/m2
12:44 21.6 °C 9.9 °C 1010.4 hPa ENE 0.2 km/h 4.8 km/h 47.4% 0 mm 387 W/m2
12:49 21.7 °C 9.7 °C 1010.4 hPa Calm   4.8 km/h 46.4% 0 mm 338 W/m2
12:54 21.8 °C 9.7 °C 1010.4 hPa ENE 0.3 km/h 6.4 km/h 46.1% 0 mm 316 W/m2
12:59 21.8 °C 9.5 °C 1010.4 hPa Calm   6.4 km/h 45.4% 0 mm 415 W/m2
13:04 21.8 °C 9.6 °C 1010.4 hPa ENE 0.6 km/h 6.4 km/h 45.8% 0 mm 420 W/m2
13:09 21.8 °C 9.1 °C 1010.4 hPa East 0.3 km/h 6.4 km/h 44.3% 0 mm 373 W/m2
13:14 21.8 °C 9.8 °C 1010.4 hPa SW 0.5 km/h 6.4 km/h 46.5% 0 mm 339 W/m2
13:19 21.8 °C 9.4 °C 1010.4 hPa SSW 0.2 km/h 6.4 km/h 44.9% 0 mm 316 W/m2
13:24 21.8 °C 8.9 °C 1010.4 hPa South 0.3 km/h 6.4 km/h 44% 0 mm 316 W/m2
13:29 21.6 °C 9.1 °C 1010.4 hPa SW 1.8 km/h 9.7 km/h 44.8% 0 mm 308 W/m2
13:34 21.6 °C 9.3 °C 1010.7 hPa SW 0.3 km/h 9.7 km/h 45.7% 0 mm 281 W/m2
13:39 21.4 °C 9.7 °C 1010.4 hPa SW 0.5 km/h 4.8 km/h 47.4% 0 mm 290 W/m2
13:44 21.3 °C 9.6 °C 1010.4 hPa SW 0.3 km/h 8 km/h 47% 0 mm 285 W/m2
13:49 21.2 °C 10.1 °C 1010.4 hPa SW 2.6 km/h 9.7 km/h 49.2% 0 mm 279 W/m2
13:54 21.1 °C 10.7 °C 1010.4 hPa WSW 1 km/h 9.7 km/h 51.2% 0 mm 287 W/m2
13:59 21 °C 11.1 °C 1010.4 hPa SW 2.6 km/h 14.5 km/h 52.9% 0 mm 297 W/m2
14:04 20.8 °C 11.3 °C 1010.7 hPa SW 1.3 km/h 14.5 km/h 54.2% 0 mm 297 W/m2
14:09 20.7 °C 11.1 °C 1010.4 hPa SW 2.9 km/h 14.5 km/h 54% 0 mm 302 W/m2
14:14 20.6 °C 11.2 °C 1010.4 hPa SW 1.1 km/h 14.5 km/h 54.6% 0 mm 276 W/m2
14:19 20.6 °C 11 °C 1010.4 hPa SW 0.6 km/h 14.5 km/h 54.4% 0 mm 250 W/m2
14:24 20.4 °C 11.2 °C 1010.4 hPa SW 0.6 km/h 14.5 km/h 55.2% 0 mm 287 W/m2
14:29 20.3 °C 11.2 °C 1010.4 hPa SW 0.3 km/h 14.5 km/h 55.5% 0 mm 348 W/m2
14:34 20.3 °C 11.5 °C 1010.4 hPa SW 0.3 km/h 14.5 km/h 57% 0 mm 401 W/m2
14:39 20.3 °C 11.8 °C 1010.4 hPa Calm   4.8 km/h 58% 0 mm 346 W/m2
14:44 20.3 °C 11.4 °C 1010 hPa Calm   4.8 km/h 56.6% 0 mm 292 W/m2
14:49 20.2 °C 11.2 °C 1010 hPa SW 0.3 km/h 6.4 km/h 56.1% 0 mm 225 W/m2
14:54 20 °C 10.8 °C 1009.7 hPa Calm   6.4 km/h 55.5% 0 mm 197 W/m2
14:59 19.9 °C 10.9 °C 1009.7 hPa Calm   6.4 km/h 56.3% 0 mm 179 W/m2
15:04 19.8 °C 10.6 °C 1009.7 hPa Calm   6.4 km/h 55.2% 0 mm 230 W/m2
15:09 19.8 °C 10.7 °C 1009.7 hPa Calm     55.7% 0 mm 272 W/m2
15:14 19.8 °C 10.7 °C 1009.7 hPa Calm     56% 0 mm 272 W/m2
15:19 19.8 °C 10.9 °C 1009.4 hPa Calm     56.7% 0 mm 253 W/m2
15:24 19.8 °C 10.8 °C 1009.4 hPa Calm     56.1% 0 mm 237 W/m2
15:29 19.8 °C 10.6 °C 1009.4 hPa Calm     55.3% 0 mm 195 W/m2
15:34 19.7 °C 10.4 °C 1009.4 hPa Calm     55.1% 0 mm 162 W/m2
15:39 19.7 °C 10.7 °C 1009.4 hPa SW 0.3 km/h 3.2 km/h 56.2% 0 mm 121 W/m2
15:44 19.6 °C 10.7 °C 1009.4 hPa Calm   3.2 km/h 56.5% 0 mm 123 W/m2
15:49 19.5 °C 10.8 °C 1009.4 hPa Calm   3.2 km/h 57% 0 mm 114 W/m2
15:54 19.4 °C 10.6 °C 1009.4 hPa Calm   3.2 km/h 56.9% 0 mm 113 W/m2
15:59 19.2 °C 10.5 °C 1009.4 hPa Calm   3.2 km/h 56.9% 0 mm 105 W/m2
16:04 19 °C 10.2 °C 1009 hPa Calm   3.2 km/h 56.7% 0 mm 97 W/m2
16:09 18.8 °C 10.3 °C 1009 hPa Calm     57.5% 0 mm 102 W/m2
16:14 18.7 °C 10.8 °C 1009 hPa Calm     60.3% 0 mm 125 W/m2
16:19 18.6 °C 10.7 °C 1009.4 hPa Calm     60% 0 mm 123 W/m2
16:24 18.4 °C 10.9 °C 1009 hPa Calm     61.4% 0 mm 113 W/m2
16:29 18.4 °C 11.2 °C 1009 hPa Calm     62.7% 0 mm 114 W/m2
16:34 18.3 °C 11.2 °C 1009 hPa Calm     63% 0 mm 172 W/m2
16:39 18.3 °C 11.3 °C 1009 hPa Calm     64.1% 0 mm 192 W/m2
16:44 18.2 °C 11.5 °C 1009 hPa Calm     64.8% 0 mm 169 W/m2
16:49 18.2 °C 11.2 °C 1009 hPa Calm     63.7% 0 mm 125 W/m2
16:54 18.2 °C 11.3 °C 1009 hPa Calm     64.5% 0 mm 98 W/m2
16:59 18.1 °C 11.4 °C 1008.7 hPa Calm     64.8% 0 mm 98 W/m2
17:04 18 °C 11.3 °C 1008.7 hPa Calm     65% 0 mm 105 W/m2
17:09 18 °C 11.4 °C 1008.7 hPa Calm     65.1% 0 mm 134 W/m2
17:14 18.1 °C 11.5 °C 1008.7 hPa Calm     65.5% 0 mm 135 W/m2
17:19 18.1 °C 11.5 °C 1008.7 hPa Calm     65.5% 0 mm 121 W/m2
17:24 18.1 °C 11.6 °C 1008.7 hPa Calm     65.9% 0 mm 125 W/m2
17:29 18 °C 11.3 °C 1008.7 hPa Calm     65.2% 0 mm 104 W/m2
17:34 17.9 °C 11.7 °C 1008.4 hPa Calm     66.8% 0 mm 102 W/m2
17:39 18 °C 12 °C 1008.7 hPa Calm   1.6 km/h 68% 0 mm 95 W/m2
17:44 18 °C 11.9 °C 1008.7 hPa Calm   1.6 km/h 67.6% 0 mm 81 W/m2
17:49 17.9 °C 11.7 °C 1008.7 hPa Calm   1.6 km/h 66.9% 0 mm 54 W/m2
17:54 17.8 °C 11.4 °C 1008.7 hPa Calm   1.6 km/h 66% 0 mm 46 W/m2
17:59 17.8 °C 11.3 °C 1008.7 hPa Calm   1.6 km/h 66% 0 mm 35 W/m2
18:04 17.7 °C 11.6 °C 1008.7 hPa Calm   1.6 km/h 67.2% 0 mm 32 W/m2
18:09 17.6 °C 11.7 °C 1008.7 hPa Calm     68.5% 0 mm 25 W/m2
18:14 17.4 °C 11.7 °C 1008.7 hPa Calm     69% 0 mm 25 W/m2
18:19 17.3 °C 11.8 °C 1008.7 hPa Calm     70.1% 0 mm 25 W/m2
18:24 17.1 °C 12.1 °C 1009 hPa Calm     72.1% 0 mm 25 W/m2
18:29 16.9 °C 12.2 °C 1009 hPa Calm     73.3% 0 mm 18 W/m2
18:34 16.8 °C 12.2 °C 1009 hPa Calm     74.6% 0.25 mm 16 W/m2
18:39 16.6 °C 12.3 °C 1009 hPa Calm     75.7% 0.25 mm 16 W/m2
18:44 16.4 °C 12.3 °C 1009 hPa Calm     76.6% 0.51 mm 9 W/m2
18:49 16.3 °C 12.4 °C 1009 hPa Calm     78.2% 0.51 mm 7 W/m2
18:54 16.1 °C 12.6 °C 1009 hPa Calm     79.7% 0.51 mm 7 W/m2
18:59 15.9 °C 12.7 °C 1009 hPa Calm     81% 0.76 mm 5 W/m2
19:04 15.8 °C 12.6 °C 1009 hPa Calm     81.1% 0.76 mm 0 W/m2
19:09 15.7 °C 12.7 °C 1009 hPa Calm     82.4% 1.02 mm 0 W/m2
19:14 15.6 °C 12.9 °C 1009 hPa Calm     84.1% 1.27 mm 0 W/m2
19:19 15.6 °C 13.1 °C 1009 hPa Calm     85% 1.27 mm 0 W/m2
19:24 15.5 °C 13.1 °C 1009 hPa Calm     85.8% 1.27 mm 0 W/m2
19:29 15.4 °C 13.1 °C 1009 hPa Calm     86% 1.52 mm 0 W/m2
19:34 15.3 °C 13.1 °C 1009.4 hPa Calm     86.6% 1.78 mm 0 W/m2
19:39 15.2 °C 13.1 °C 1009.4 hPa Calm     87.1% 1.78 mm 0 W/m2
19:44 15.1 °C 13.2 °C 1009.7 hPa Calm     88% 2.03 mm 0 W/m2
19:49 15.1 °C 13.1 °C 1009.7 hPa Calm     88% 2.03 mm 0 W/m2
19:54 14.9 °C 13 °C 1009.4 hPa Calm     88.2% 2.03 mm 0 W/m2
19:59 14.9 °C 13.1 °C 1009.4 hPa Calm     89% 2.29 mm 0 W/m2
20:00 14.8 °C 13.1 °C 1009.4 hPa Calm     89% 2.29 mm 0 W/m2
20:09 14.8 °C 13.2 °C 1009.4 hPa Calm     89.8% 1.52 mm 0 W/m2
20:14 14.7 °C 13.1 °C 1009.4 hPa Calm     90% 1.52 mm 0 W/m2
20:19 14.6 °C 12.9 °C 1009.4 hPa Calm     89.1% 1.52 mm 0 W/m2
20:24 14.6 °C 12.8 °C 1009.4 hPa Calm     89.5% 1.52 mm 0 W/m2
20:29 14.4 °C 12.8 °C 1009.4 hPa Calm     89.6% 1.52 mm 0 W/m2
20:34 14.4 °C 12.7 °C 1009.4 hPa Calm     90% 1.52 mm 0 W/m2
20:39 14.3 °C 12.7 °C 1009.4 hPa Calm     90% 0.76 mm 0 W/m2
20:44 14.2 °C 12.6 °C 1009.7 hPa Calm     90% 0.76 mm 0 W/m2
20:49 14.2 °C 12.7 °C 1009.7 hPa Calm     90.6% 0.76 mm 0 W/m2
20:54 14.1 °C 12.7 °C 1009.7 hPa Calm     91% 0.76 mm 0 W/m2
20:59 14.1 °C 12.7 °C 1009.7 hPa Calm     91% 0.76 mm 0 W/m2
21:04 14.1 °C 12.7 °C 1009.7 hPa Calm     91.5% 0.76 mm 0 W/m2
21:09 14.1 °C 12.8 °C 1009.7 hPa Calm     92% 0 mm 0 W/m2
21:14 14.1 °C 12.7 °C 1009.7 hPa Calm     91.5% 0 mm 0 W/m2
21:19 14 °C 12.6 °C 1010 hPa Calm     91% 0 mm 0 W/m2
21:24 13.9 °C 12.5 °C 1010 hPa Calm     91% 0 mm 0 W/m2
21:29 13.9 °C 12.4 °C 1010 hPa Calm     91% 0 mm 0 W/m2
21:34 13.8 °C 12.3 °C 1010 hPa Calm     91% 0 mm 0 W/m2
21:39 13.7 °C 12.3 °C 1010 hPa Calm     91% 0 mm 0 W/m2
21:44 13.7 °C 12.2 °C 1010 hPa Calm     91% 0 mm 0 W/m2
21:49 13.7 °C 12.2 °C 1010 hPa Calm     91% 0 mm 0 W/m2
21:54 13.6 °C 12.1 °C 1010 hPa Calm     90.8% 0.51 mm 0 W/m2
21:59 13.5 °C 11.9 °C 1010.4 hPa Calm     90% 0.51 mm 0 W/m2
22:04 13.4 °C 11.8 °C 1010.4 hPa Calm     90% 0.76 mm 0 W/m2
22:09 13.3 °C 11.8 °C 1010 hPa Calm     90% 0.76 mm 0 W/m2
22:14 13.3 °C 11.7 °C 1010 hPa Calm     90% 0.76 mm 0 W/m2
22:19 13.2 °C 11.6 °C 1010 hPa Calm     90% 0.76 mm 0 W/m2
22:24 13.1 °C 11.5 °C 1009.7 hPa Calm     90% 0.76 mm 0 W/m2
22:29 13 °C 11.4 °C 1009.7 hPa Calm     90% 0.76 mm 0 W/m2
22:34 12.9 °C 11.5 °C 1009.7 hPa Calm     90.7% 0.76 mm 0 W/m2
22:39 12.9 °C 11.5 °C 1009.4 hPa Calm     91% 0.76 mm 0 W/m2
22:44 12.8 °C 11.4 °C 1009.4 hPa Calm     91% 0.76 mm 0 W/m2
22:49 12.8 °C 11.4 °C 1009.4 hPa Calm     91% 0.76 mm 0 W/m2
22:54 12.8 °C 11.6 °C 1009.4 hPa Calm     91.6% 1.02 mm 0 W/m2
22:59 12.9 °C 11.6 °C 1009.4 hPa Calm     92% 1.02 mm 0 W/m2
23:04 12.9 °C 11.6 °C 1009.4 hPa Calm     92% 1.02 mm 0 W/m2
23:09 12.8 °C 11.6 °C 1009.4 hPa Calm     92% 1.02 mm 0 W/m2
23:14 12.8 °C 11.6 °C 1009 hPa Calm     92% 1.52 mm 0 W/m2
23:19 12.8 °C 11.5 °C 1009 hPa SW 0.2 km/h 1.6 km/h 92% 2.54 mm 0 W/m2
23:24 12.7 °C 11.4 °C 1009 hPa SE 0.5 km/h 6.4 km/h 92% 3.3 mm 0 W/m2
23:29 12.7 °C 11.4 °C 1008.7 hPa Calm   6.4 km/h 92% 4.06 mm 0 W/m2
23:34 12.7 °C 11.4 °C 1008.7 hPa Calm   6.4 km/h 92.4% 4.57 mm 0 W/m2
23:39 12.7 °C 11.6 °C 1008.4 hPa Calm   1.6 km/h 93% 5.59 mm 0 W/m2
23:44 12.7 °C 11.6 °C 1008.4 hPa Calm   1.6 km/h 93% 6.1 mm 0 W/m2
23:49 12.7 °C 11.6 °C 1008.4 hPa Calm   1.6 km/h 93% 6.35 mm 0 W/m2
23:54 12.7 °C 11.6 °C 1008 hPa Calm   1.6 km/h 93% 6.6 mm 0 W/m2
23:59 12.7 °C 11.8 °C 1008 hPa Calm   1.6 km/h 94% 7.37 mm 0 W/m2
Hartford County Weather
Compliments of Weather Underground - 4 mb